sensor_id;sensor_type;location;lat;lon;timestamp;temperature;humidity
29571;DHT22;16814;52.118;11.436;2024-03-02T00:00:08;5.20;99.90
29571;DHT22;16814;52.118;11.436;2024-03-02T00:02:41;5.20;99.90
29571;DHT22;16814;52.118;11.436;2024-03-02T00:05:07;5.60;99.90
29571;DHT22;16814;52.118;11.436;2024-03-02T00:07:33;5.40;99.90
29571;DHT22;16814;52.118;11.436;2024-03-02T00:09:58;5.60;99.90
29571;DHT22;16814;52.118;11.436;2024-03-02T00:12:24;5.70;99.90
29571;DHT22;16814;52.118;11.436;2024-03-02T00:14:51;5.60;99.90
29571;DHT22;16814;52.118;11.436;2024-03-02T00:17:25;5.70;99.90
29571;DHT22;16814;52.118;11.436;2024-03-02T00:19:51;5.60;99.90
29571;DHT22;16814;52.118;11.436;2024-03-02T00:22:17;6.00;99.90
29571;DHT22;16814;52.118;11.436;2024-03-02T00:24:43;5.70;99.90
29571;DHT22;16814;52.118;11.436;2024-03-02T00:27:13;5.70;99.90
29571;DHT22;16814;52.118;11.436;2024-03-02T00:29:40;5.60;99.90
29571;DHT22;16814;52.118;11.436;2024-03-02T00:32:12;6.00;99.90
29571;DHT22;16814;52.118;11.436;2024-03-02T00:34:39;5.70;99.90
29571;DHT22;16814;52.118;11.436;2024-03-02T00:37:05;5.70;99.90
29571;DHT22;16814;52.118;11.436;2024-03-02T00:39:31;5.70;99.90
29571;DHT22;16814;52.118;11.436;2024-03-02T00:41:57;5.70;99.90
29571;DHT22;16814;52.118;11.436;2024-03-02T00:44:25;5.60;99.90
29571;DHT22;16814;52.118;11.436;2024-03-02T00:46:52;5.60;99.90
29571;DHT22;16814;52.118;11.436;2024-03-02T00:49:23;5.70;99.90
29571;DHT22;16814;52.118;11.436;2024-03-02T00:51:50;5.60;99.90
29571;DHT22;16814;52.118;11.436;2024-03-02T00:54:23;5.50;99.90
29571;DHT22;16814;52.118;11.436;2024-03-02T00:56:50;5.60;99.90
29571;DHT22;16814;52.118;11.436;2024-03-02T00:59:17;5.70;99.90
29571;DHT22;16814;52.118;11.436;2024-03-02T01:01:44;5.80;99.90
29571;DHT22;16814;52.118;11.436;2024-03-02T01:04:10;5.80;99.90
29571;DHT22;16814;52.118;11.436;2024-03-02T01:06:35;5.70;99.90
29571;DHT22;16814;52.118;11.436;2024-03-02T01:09:02;5.80;99.90
29571;DHT22;16814;52.118;11.436;2024-03-02T01:11:28;5.90;99.90
29571;DHT22;16814;52.118;11.436;2024-03-02T01:13:53;5.80;99.90
29571;DHT22;16814;52.118;11.436;2024-03-02T01:16:19;5.90;99.90
29571;DHT22;16814;52.118;11.436;2024-03-02T01:18:45;5.90;99.90
29571;DHT22;16814;52.118;11.436;2024-03-02T01:21:10;5.90;99.90
29571;DHT22;16814;52.118;11.436;2024-03-02T01:23:36;5.80;99.90
29571;DHT22;16814;52.118;11.436;2024-03-02T01:26:02;5.80;99.90
29571;DHT22;16814;52.118;11.436;2024-03-02T01:28:27;5.80;99.90
29571;DHT22;16814;52.118;11.436;2024-03-02T01:30:53;6.00;99.90
29571;DHT22;16814;52.118;11.436;2024-03-02T01:33:19;5.80;99.90
29571;DHT22;16814;52.118;11.436;2024-03-02T01:35:45;5.80;99.90
29571;DHT22;16814;52.118;11.436;2024-03-02T01:38:10;5.90;99.90
29571;DHT22;16814;52.118;11.436;2024-03-02T01:40:37;5.90;99.90
29571;DHT22;16814;52.118;11.436;2024-03-02T01:43:06;5.80;99.90
29571;DHT22;16814;52.118;11.436;2024-03-02T01:45:33;5.90;99.90
29571;DHT22;16814;52.118;11.436;2024-03-02T01:47:59;5.80;99.90
29571;DHT22;16814;52.118;11.436;2024-03-02T01:50:29;5.70;99.90
29571;DHT22;16814;52.118;11.436;2024-03-02T01:52:56;5.60;99.90
29571;DHT22;16814;52.118;11.436;2024-03-02T01:55:22;5.70;99.90
29571;DHT22;16814;52.118;11.436;2024-03-02T01:57:49;5.70;99.90
29571;DHT22;16814;52.118;11.436;2024-03-02T02:00:16;5.60;99.90
29571;DHT22;16814;52.118;11.436;2024-03-02T02:02:43;5.70;99.90
29571;DHT22;16814;52.118;11.436;2024-03-02T02:05:08;5.70;99.90
29571;DHT22;16814;52.118;11.436;2024-03-02T02:07:35;5.90;99.90
29571;DHT22;16814;52.118;11.436;2024-03-02T02:10:01;5.60;99.90
29571;DHT22;16814;52.118;11.436;2024-03-02T02:12:26;5.70;99.90
29571;DHT22;16814;52.118;11.436;2024-03-02T02:14:52;5.80;99.90
29571;DHT22;16814;52.118;11.436;2024-03-02T02:17:18;5.80;99.90
29571;DHT22;16814;52.118;11.436;2024-03-02T02:19:44;5.90;99.90
29571;DHT22;16814;52.118;11.436;2024-03-02T02:22:10;5.90;99.90
29571;DHT22;16814;52.118;11.436;2024-03-02T02:24:36;5.90;99.90
29571;DHT22;16814;52.118;11.436;2024-03-02T02:27:01;5.80;99.90
29571;DHT22;16814;52.118;11.436;2024-03-02T02:29:27;5.70;99.90
29571;DHT22;16814;52.118;11.436;2024-03-02T02:31:53;5.70;99.90
29571;DHT22;16814;52.118;11.436;2024-03-02T02:34:18;5.70;99.90
29571;DHT22;16814;52.118;11.436;2024-03-02T02:36:44;5.70;99.90
29571;DHT22;16814;52.118;11.436;2024-03-02T02:39:15;5.80;99.90
29571;DHT22;16814;52.118;11.436;2024-03-02T02:41:41;5.80;99.90
29571;DHT22;16814;52.118;11.436;2024-03-02T02:44:07;5.80;99.90
29571;DHT22;16814;52.118;11.436;2024-03-02T02:46:32;5.70;99.90
29571;DHT22;16814;52.118;11.436;2024-03-02T02:48:58;5.60;99.90
29571;DHT22;16814;52.118;11.436;2024-03-02T02:51:24;5.50;99.90
29571;DHT22;16814;52.118;11.436;2024-03-02T02:53:51;5.30;99.90
29571;DHT22;16814;52.118;11.436;2024-03-02T02:56:17;5.10;99.90
29571;DHT22;16814;52.118;11.436;2024-03-02T02:58:42;5.20;99.90
29571;DHT22;16814;52.118;11.436;2024-03-02T03:01:08;5.30;99.90
29571;DHT22;16814;52.118;11.436;2024-03-02T03:03:34;5.30;99.90
29571;DHT22;16814;52.118;11.436;2024-03-02T03:05:59;5.40;99.90
29571;DHT22;16814;52.118;11.436;2024-03-02T03:08:25;5.40;99.90
29571;DHT22;16814;52.118;11.436;2024-03-02T03:10:51;5.50;99.90
29571;DHT22;16814;52.118;11.436;2024-03-02T03:13:16;5.50;99.90
29571;DHT22;16814;52.118;11.436;2024-03-02T03:15:42;5.50;99.90
29571;DHT22;16814;52.118;11.436;2024-03-02T03:18:07;5.60;99.90
29571;DHT22;16814;52.118;11.436;2024-03-02T03:20:36;5.50;99.90
29571;DHT22;16814;52.118;11.436;2024-03-02T03:23:01;5.60;99.90
29571;DHT22;16814;52.118;11.436;2024-03-02T03:25:27;5.70;99.90
29571;DHT22;16814;52.118;11.436;2024-03-02T03:27:52;5.80;99.90
29571;DHT22;16814;52.118;11.436;2024-03-02T03:30:18;5.70;99.90
29571;DHT22;16814;52.118;11.436;2024-03-02T03:32:44;5.80;99.90
29571;DHT22;16814;52.118;11.436;2024-03-02T03:35:09;5.80;99.90
29571;DHT22;16814;52.118;11.436;2024-03-02T03:37:35;5.60;99.90
29571;DHT22;16814;52.118;11.436;2024-03-02T03:40:04;5.50;99.90
29571;DHT22;16814;52.118;11.436;2024-03-02T03:42:38;5.50;99.90
29571;DHT22;16814;52.118;11.436;2024-03-02T03:45:05;5.60;99.90
29571;DHT22;16814;52.118;11.436;2024-03-02T03:47:34;5.60;99.90
29571;DHT22;16814;52.118;11.436;2024-03-02T03:50:00;5.50;99.90
29571;DHT22;16814;52.118;11.436;2024-03-02T03:52:25;5.60;99.90
29571;DHT22;16814;52.118;11.436;2024-03-02T03:54:51;5.50;99.90
29571;DHT22;16814;52.118;11.436;2024-03-02T03:57:17;5.70;99.90
29571;DHT22;16814;52.118;11.436;2024-03-02T03:59:43;5.60;99.90
29571;DHT22;16814;52.118;11.436;2024-03-02T04:02:09;5.60;99.90
29571;DHT22;16814;52.118;11.436;2024-03-02T04:04:35;5.60;99.90
29571;DHT22;16814;52.118;11.436;2024-03-02T04:07:01;5.40;99.90
29571;DHT22;16814;52.118;11.436;2024-03-02T04:09:26;5.40;99.90
29571;DHT22;16814;52.118;11.436;2024-03-02T04:11:53;5.30;99.90
29571;DHT22;16814;52.118;11.436;2024-03-02T04:14:18;5.30;99.90
29571;DHT22;16814;52.118;11.436;2024-03-02T04:16:44;5.40;99.90
29571;DHT22;16814;52.118;11.436;2024-03-02T04:19:09;5.30;99.90
29571;DHT22;16814;52.118;11.436;2024-03-02T04:21:35;5.30;99.90
29571;DHT22;16814;52.118;11.436;2024-03-02T04:24:01;5.20;99.90
29571;DHT22;16814;52.118;11.436;2024-03-02T04:26:26;5.10;99.90
29571;DHT22;16814;52.118;11.436;2024-03-02T04:28:52;5.20;99.90
29571;DHT22;16814;52.118;11.436;2024-03-02T04:31:19;5.20;99.90
29571;DHT22;16814;52.118;11.436;2024-03-02T04:33:45;5.10;99.90
29571;DHT22;16814;52.118;11.436;2024-03-02T04:36:11;5.20;99.90
29571;DHT22;16814;52.118;11.436;2024-03-02T04:38:37;5.30;99.90
29571;DHT22;16814;52.118;11.436;2024-03-02T04:41:04;5.20;99.90
29571;DHT22;16814;52.118;11.436;2024-03-02T04:43:31;5.20;99.90
29571;DHT22;16814;52.118;11.436;2024-03-02T04:45:57;5.10;99.90
29571;DHT22;16814;52.118;11.436;2024-03-02T04:48:23;5.10;99.90
29571;DHT22;16814;52.118;11.436;2024-03-02T04:50:49;5.10;99.90
29571;DHT22;16814;52.118;11.436;2024-03-02T04:53:14;5.10;99.90
29571;DHT22;16814;52.118;11.436;2024-03-02T04:55:40;5.00;99.90
29571;DHT22;16814;52.118;11.436;2024-03-02T04:58:06;5.00;99.90
29571;DHT22;16814;52.118;11.436;2024-03-02T05:00:32;5.00;99.90
29571;DHT22;16814;52.118;11.436;2024-03-02T05:02:58;5.00;99.90
29571;DHT22;16814;52.118;11.436;2024-03-02T05:05:23;5.00;99.90
29571;DHT22;16814;52.118;11.436;2024-03-02T05:07:49;5.00;99.90
29571;DHT22;16814;52.118;11.436;2024-03-02T05:10:15;5.00;99.90
29571;DHT22;16814;52.118;11.436;2024-03-02T05:12:41;5.00;99.90
29571;DHT22;16814;52.118;11.436;2024-03-02T05:15:11;4.90;99.90
29571;DHT22;16814;52.118;11.436;2024-03-02T05:17:37;5.10;99.90
29571;DHT22;16814;52.118;11.436;2024-03-02T05:20:06;4.90;99.90
29571;DHT22;16814;52.118;11.436;2024-03-02T05:22:33;4.90;99.90
29571;DHT22;16814;52.118;11.436;2024-03-02T05:24:59;4.90;99.90
29571;DHT22;16814;52.118;11.436;2024-03-02T05:27:26;5.00;99.90
29571;DHT22;16814;52.118;11.436;2024-03-02T05:29:52;5.00;99.90
29571;DHT22;16814;52.118;11.436;2024-03-02T05:32:17;5.00;99.90
29571;DHT22;16814;52.118;11.436;2024-03-02T05:34:43;5.00;99.90
29571;DHT22;16814;52.118;11.436;2024-03-02T05:37:09;5.00;99.90
29571;DHT22;16814;52.118;11.436;2024-03-02T05:39:34;5.40;99.90
29571;DHT22;16814;52.118;11.436;2024-03-02T05:42:00;5.00;99.90
29571;DHT22;16814;52.118;11.436;2024-03-02T05:44:25;5.10;99.90
29571;DHT22;16814;52.118;11.436;2024-03-02T05:46:51;5.00;99.90
29571;DHT22;16814;52.118;11.436;2024-03-02T05:49:17;5.00;99.90
29571;DHT22;16814;52.118;11.436;2024-03-02T05:51:42;5.00;99.90
29571;DHT22;16814;52.118;11.436;2024-03-02T05:54:08;5.00;99.90
29571;DHT22;16814;52.118;11.436;2024-03-02T05:56:34;4.90;99.90
29571;DHT22;16814;52.118;11.436;2024-03-02T05:59:00;5.00;99.90
29571;DHT22;16814;52.118;11.436;2024-03-02T06:01:48;4.80;99.90
29571;DHT22;16814;52.118;11.436;2024-03-02T06:04:16;4.80;99.90
29571;DHT22;16814;52.118;11.436;2024-03-02T06:06:42;4.80;99.90
29571;DHT22;16814;52.118;11.436;2024-03-02T06:09:08;4.90;99.90
29571;DHT22;16814;52.118;11.436;2024-03-02T06:11:37;5.00;99.90
29571;DHT22;16814;52.118;11.436;2024-03-02T06:14:04;5.00;99.90
29571;DHT22;16814;52.118;11.436;2024-03-02T06:16:30;5.00;99.90
29571;DHT22;16814;52.118;11.436;2024-03-02T06:18:56;5.00;99.90
29571;DHT22;16814;52.118;11.436;2024-03-02T06:21:23;5.10;99.90
29571;DHT22;16814;52.118;11.436;2024-03-02T06:23:49;5.10;99.90
29571;DHT22;16814;52.118;11.436;2024-03-02T06:26:14;5.20;99.90
29571;DHT22;16814;52.118;11.436;2024-03-02T06:28:40;5.20;99.90
29571;DHT22;16814;52.118;11.436;2024-03-02T06:31:06;5.20;99.90
29571;DHT22;16814;52.118;11.436;2024-03-02T06:33:31;5.20;99.90
29571;DHT22;16814;52.118;11.436;2024-03-02T06:35:57;5.30;99.90
29571;DHT22;16814;52.118;11.436;2024-03-02T06:38:23;5.30;99.90
29571;DHT22;16814;52.118;11.436;2024-03-02T06:40:48;5.40;99.90
29571;DHT22;16814;52.118;11.436;2024-03-02T06:43:14;5.40;99.90
29571;DHT22;16814;52.118;11.436;2024-03-02T06:45:39;5.40;99.90
29571;DHT22;16814;52.118;11.436;2024-03-02T06:48:05;5.60;99.90
29571;DHT22;16814;52.118;11.436;2024-03-02T06:50:31;5.50;99.90
29571;DHT22;16814;52.118;11.436;2024-03-02T06:52:57;5.60;99.90
29571;DHT22;16814;52.118;11.436;2024-03-02T06:55:22;5.90;99.90
29571;DHT22;16814;52.118;11.436;2024-03-02T06:57:50;5.80;99.90
29571;DHT22;16814;52.118;11.436;2024-03-02T07:00:16;5.80;99.90
29571;DHT22;16814;52.118;11.436;2024-03-02T07:02:43;5.80;99.90
29571;DHT22;16814;52.118;11.436;2024-03-02T07:05:10;5.80;99.90
29571;DHT22;16814;52.118;11.436;2024-03-02T07:07:36;5.70;99.90
29571;DHT22;16814;52.118;11.436;2024-03-02T07:10:06;5.70;99.90
29571;DHT22;16814;52.118;11.436;2024-03-02T07:12:35;5.80;99.90
29571;DHT22;16814;52.118;11.436;2024-03-02T07:15:02;5.90;99.90
29571;DHT22;16814;52.118;11.436;2024-03-02T07:17:31;6.00;99.90
29571;DHT22;16814;52.118;11.436;2024-03-02T07:19:57;6.10;99.90
29571;DHT22;16814;52.118;11.436;2024-03-02T07:22:22;6.40;99.90
29571;DHT22;16814;52.118;11.436;2024-03-02T07:24:49;6.40;99.90
29571;DHT22;16814;52.118;11.436;2024-03-02T07:27:15;6.40;99.90
29571;DHT22;16814;52.118;11.436;2024-03-02T07:29:41;6.50;99.90
29571;DHT22;16814;52.118;11.436;2024-03-02T07:32:08;6.40;99.90
29571;DHT22;16814;52.118;11.436;2024-03-02T07:34:34;6.40;99.90
29571;DHT22;16814;52.118;11.436;2024-03-02T07:37:00;6.40;99.90
29571;DHT22;16814;52.118;11.436;2024-03-02T07:39:26;6.50;99.90
29571;DHT22;16814;52.118;11.436;2024-03-02T07:41:51;6.70;99.90
29571;DHT22;16814;52.118;11.436;2024-03-02T07:44:17;6.70;99.90
29571;DHT22;16814;52.118;11.436;2024-03-02T07:46:45;6.90;99.90
29571;DHT22;16814;52.118;11.436;2024-03-02T07:49:12;7.00;99.90
29571;DHT22;16814;52.118;11.436;2024-03-02T07:51:39;7.30;99.90
29571;DHT22;16814;52.118;11.436;2024-03-02T07:54:05;7.40;99.90
29571;DHT22;16814;52.118;11.436;2024-03-02T07:56:30;7.60;99.90
29571;DHT22;16814;52.118;11.436;2024-03-02T07:58:56;7.60;99.90
29571;DHT22;16814;52.118;11.436;2024-03-02T08:01:29;7.60;99.90
29571;DHT22;16814;52.118;11.436;2024-03-02T08:04:01;8.00;99.90
29571;DHT22;16814;52.118;11.436;2024-03-02T08:06:29;8.10;99.90
29571;DHT22;16814;52.118;11.436;2024-03-02T08:08:56;8.40;99.90
29571;DHT22;16814;52.118;11.436;2024-03-02T08:11:22;8.40;99.90
29571;DHT22;16814;52.118;11.436;2024-03-02T08:13:48;8.60;99.90
29571;DHT22;16814;52.118;11.436;2024-03-02T08:16:17;8.80;99.90
29571;DHT22;16814;52.118;11.436;2024-03-02T08:18:49;8.90;99.90
29571;DHT22;16814;52.118;11.436;2024-03-02T08:21:15;8.80;99.90
29571;DHT22;16814;52.118;11.436;2024-03-02T08:23:41;8.90;99.90
29571;DHT22;16814;52.118;11.436;2024-03-02T08:26:11;8.90;99.90
29571;DHT22;16814;52.118;11.436;2024-03-02T08:28:36;9.00;99.90
29571;DHT22;16814;52.118;11.436;2024-03-02T08:31:03;9.30;99.90
29571;DHT22;16814;52.118;11.436;2024-03-02T08:33:29;9.20;99.90
29571;DHT22;16814;52.118;11.436;2024-03-02T08:35:55;9.30;99.90
29571;DHT22;16814;52.118;11.436;2024-03-02T08:38:21;9.40;99.90
29571;DHT22;16814;52.118;11.436;2024-03-02T08:40:47;9.60;99.90
29571;DHT22;16814;52.118;11.436;2024-03-02T08:43:12;9.60;99.90
29571;DHT22;16814;52.118;11.436;2024-03-02T08:45:38;9.60;99.90
29571;DHT22;16814;52.118;11.436;2024-03-02T08:48:06;9.60;99.90
29571;DHT22;16814;52.118;11.436;2024-03-02T08:50:34;9.70;99.90
29571;DHT22;16814;52.118;11.436;2024-03-02T08:53:00;9.70;99.90
29571;DHT22;16814;52.118;11.436;2024-03-02T08:55:26;9.80;99.90
29571;DHT22;16814;52.118;11.436;2024-03-02T08:57:52;9.60;99.90
29571;DHT22;16814;52.118;11.436;2024-03-02T09:00:18;9.60;99.90
29571;DHT22;16814;52.118;11.436;2024-03-02T09:02:44;9.50;99.90
29571;DHT22;16814;52.118;11.436;2024-03-02T09:05:10;9.50;99.90
29571;DHT22;16814;52.118;11.436;2024-03-02T09:07:36;9.60;99.90
29571;DHT22;16814;52.118;11.436;2024-03-02T09:10:03;9.60;99.90
29571;DHT22;16814;52.118;11.436;2024-03-02T09:12:29;9.70;99.90
29571;DHT22;16814;52.118;11.436;2024-03-02T09:14:55;9.80;99.90
29571;DHT22;16814;52.118;11.436;2024-03-02T09:17:20;9.90;99.90
29571;DHT22;16814;52.118;11.436;2024-03-02T09:19:46;9.80;99.90
29571;DHT22;16814;52.118;11.436;2024-03-02T09:22:12;10.00;99.90
29571;DHT22;16814;52.118;11.436;2024-03-02T09:24:38;10.10;99.90
29571;DHT22;16814;52.118;11.436;2024-03-02T09:27:04;10.30;99.90
29571;DHT22;16814;52.118;11.436;2024-03-02T09:29:31;10.50;99.90
29571;DHT22;16814;52.118;11.436;2024-03-02T09:31:56;10.70;99.90
29571;DHT22;16814;52.118;11.436;2024-03-02T09:34:22;10.70;99.90
29571;DHT22;16814;52.118;11.436;2024-03-02T09:36:47;10.90;99.90
29571;DHT22;16814;52.118;11.436;2024-03-02T09:39:13;11.00;99.90
29571;DHT22;16814;52.118;11.436;2024-03-02T09:41:39;11.10;99.90
29571;DHT22;16814;52.118;11.436;2024-03-02T09:44:05;11.20;99.90
29571;DHT22;16814;52.118;11.436;2024-03-02T09:46:31;11.30;99.90
29571;DHT22;16814;52.118;11.436;2024-03-02T09:48:57;11.40;99.90
29571;DHT22;16814;52.118;11.436;2024-03-02T09:51:23;11.50;99.90
29571;DHT22;16814;52.118;11.436;2024-03-02T09:53:49;11.70;99.90
29571;DHT22;16814;52.118;11.436;2024-03-02T09:56:15;12.00;99.90
29571;DHT22;16814;52.118;11.436;2024-03-02T09:58:44;12.10;99.90
29571;DHT22;16814;52.118;11.436;2024-03-02T10:01:10;12.10;99.90
29571;DHT22;16814;52.118;11.436;2024-03-02T10:03:37;12.40;99.90
29571;DHT22;16814;52.118;11.436;2024-03-02T10:06:30;12.30;99.90
29571;DHT22;16814;52.118;11.436;2024-03-02T10:08:56;12.30;99.90
29571;DHT22;16814;52.118;11.436;2024-03-02T10:11:32;12.00;99.90
29571;DHT22;16814;52.118;11.436;2024-03-02T10:16:34;12.00;99.90
29571;DHT22;16814;52.118;11.436;2024-03-02T10:21:47;12.10;99.90
29571;DHT22;16814;52.118;11.436;2024-03-02T10:24:15;12.20;99.90
29571;DHT22;16814;52.118;11.436;2024-03-02T10:26:41;12.20;99.90
29571;DHT22;16814;52.118;11.436;2024-03-02T10:29:08;12.40;99.90
29571;DHT22;16814;52.118;11.436;2024-03-02T10:31:37;12.30;99.90
29571;DHT22;16814;52.118;11.436;2024-03-02T10:34:03;12.20;99.90
29571;DHT22;16814;52.118;11.436;2024-03-02T10:36:29;12.10;99.90
29571;DHT22;16814;52.118;11.436;2024-03-02T10:38:56;12.00;99.90
29571;DHT22;16814;52.118;11.436;2024-03-02T10:41:24;11.90;99.90
29571;DHT22;16814;52.118;11.436;2024-03-02T10:43:52;11.80;99.90
29571;DHT22;16814;52.118;11.436;2024-03-02T10:46:29;12.00;99.90
29571;DHT22;16814;52.118;11.436;2024-03-02T10:48:56;12.20;99.90
29571;DHT22;16814;52.118;11.436;2024-03-02T10:51:28;12.40;99.90
29571;DHT22;16814;52.118;11.436;2024-03-02T10:54:01;12.50;99.90
29571;DHT22;16814;52.118;11.436;2024-03-02T10:56:34;12.70;99.90
29571;DHT22;16814;52.118;11.436;2024-03-02T10:59:17;12.70;99.90
29571;DHT22;16814;52.118;11.436;2024-03-02T11:01:48;12.70;99.90
29571;DHT22;16814;52.118;11.436;2024-03-02T11:04:17;12.60;99.90
29571;DHT22;16814;52.118;11.436;2024-03-02T11:06:48;12.70;99.90
29571;DHT22;16814;52.118;11.436;2024-03-02T11:09:14;12.80;99.90
29571;DHT22;16814;52.118;11.436;2024-03-02T11:11:43;13.10;99.90
29571;DHT22;16814;52.118;11.436;2024-03-02T11:14:14;13.30;99.90
29571;DHT22;16814;52.118;11.436;2024-03-02T11:16:42;13.40;99.90
29571;DHT22;16814;52.118;11.436;2024-03-02T11:19:15;13.40;99.90
29571;DHT22;16814;52.118;11.436;2024-03-02T11:21:42;13.60;99.90
29571;DHT22;16814;52.118;11.436;2024-03-02T11:26:50;13.80;99.90
29571;DHT22;16814;52.118;11.436;2024-03-02T11:32:12;13.40;99.90
29571;DHT22;16814;52.118;11.436;2024-03-02T11:34:42;13.30;99.90
29571;DHT22;16814;52.118;11.436;2024-03-02T11:37:11;13.30;99.90
29571;DHT22;16814;52.118;11.436;2024-03-02T11:39:38;13.10;99.90
29571;DHT22;16814;52.118;11.436;2024-03-02T11:42:06;13.10;99.90
29571;DHT22;16814;52.118;11.436;2024-03-02T11:44:34;13.00;99.90
29571;DHT22;16814;52.118;11.436;2024-03-02T11:47:02;13.00;99.90
29571;DHT22;16814;52.118;11.436;2024-03-02T11:49:38;13.20;99.90
29571;DHT22;16814;52.118;11.436;2024-03-02T11:52:08;13.50;99.90
29571;DHT22;16814;52.118;11.436;2024-03-02T11:54:36;13.70;99.90
29571;DHT22;16814;52.118;11.436;2024-03-02T11:57:08;13.80;99.90
29571;DHT22;16814;52.118;11.436;2024-03-02T11:59:34;13.80;99.90
29571;DHT22;16814;52.118;11.436;2024-03-02T12:01:59;13.90;99.90
29571;DHT22;16814;52.118;11.436;2024-03-02T12:04:26;13.70;99.90
29571;DHT22;16814;52.118;11.436;2024-03-02T12:06:55;13.70;99.90
29571;DHT22;16814;52.118;11.436;2024-03-02T12:09:21;13.70;99.90
29571;DHT22;16814;52.118;11.436;2024-03-02T12:11:47;13.70;99.90
29571;DHT22;16814;52.118;11.436;2024-03-02T12:14:13;13.70;99.90
29571;DHT22;16814;52.118;11.436;2024-03-02T12:16:39;13.60;99.90
29571;DHT22;16814;52.118;11.436;2024-03-02T12:19:05;13.50;99.90
29571;DHT22;16814;52.118;11.436;2024-03-02T12:21:31;13.50;99.90
29571;DHT22;16814;52.118;11.436;2024-03-02T12:23:57;13.70;99.90
29571;DHT22;16814;52.118;11.436;2024-03-02T12:26:23;13.80;99.90
29571;DHT22;16814;52.118;11.436;2024-03-02T12:28:49;13.90;99.90
29571;DHT22;16814;52.118;11.436;2024-03-02T12:31:15;14.00;99.90
29571;DHT22;16814;52.118;11.436;2024-03-02T12:33:41;14.00;99.90
29571;DHT22;16814;52.118;11.436;2024-03-02T12:36:10;14.00;99.90
29571;DHT22;16814;52.118;11.436;2024-03-02T12:38:37;13.80;99.90
29571;DHT22;16814;52.118;11.436;2024-03-02T12:41:03;13.70;99.90
29571;DHT22;16814;52.118;11.436;2024-03-02T12:43:31;13.50;99.90
29571;DHT22;16814;52.118;11.436;2024-03-02T12:45:59;13.60;99.90
29571;DHT22;16814;52.118;11.436;2024-03-02T12:48:25;13.50;99.90
29571;DHT22;16814;52.118;11.436;2024-03-02T12:50:51;13.60;99.90
29571;DHT22;16814;52.118;11.436;2024-03-02T12:53:16;13.70;99.90
29571;DHT22;16814;52.118;11.436;2024-03-02T12:55:42;13.70;99.90
29571;DHT22;16814;52.118;11.436;2024-03-02T12:58:17;13.60;99.90
29571;DHT22;16814;52.118;11.436;2024-03-02T13:00:42;13.50;99.90
29571;DHT22;16814;52.118;11.436;2024-03-02T13:03:08;13.60;99.90
29571;DHT22;16814;52.118;11.436;2024-03-02T13:05:34;13.60;99.90
29571;DHT22;16814;52.118;11.436;2024-03-02T13:08:00;13.40;99.90
29571;DHT22;16814;52.118;11.436;2024-03-02T13:10:28;13.30;99.90
29571;DHT22;16814;52.118;11.436;2024-03-02T13:12:55;13.20;99.90
29571;DHT22;16814;52.118;11.436;2024-03-02T13:15:21;13.10;99.90
29571;DHT22;16814;52.118;11.436;2024-03-02T13:17:46;13.10;99.90
29571;DHT22;16814;52.118;11.436;2024-03-02T13:20:12;12.90;99.90
29571;DHT22;16814;52.118;11.436;2024-03-02T13:22:39;12.80;99.90
29571;DHT22;16814;52.118;11.436;2024-03-02T13:25:05;12.70;99.90
29571;DHT22;16814;52.118;11.436;2024-03-02T13:27:31;12.70;99.90
29571;DHT22;16814;52.118;11.436;2024-03-02T13:29:57;12.60;99.90
29571;DHT22;16814;52.118;11.436;2024-03-02T13:32:24;12.60;99.90
29571;DHT22;16814;52.118;11.436;2024-03-02T13:34:51;12.70;99.90
29571;DHT22;16814;52.118;11.436;2024-03-02T13:37:17;12.70;99.90
29571;DHT22;16814;52.118;11.436;2024-03-02T13:39:42;12.80;99.90
29571;DHT22;16814;52.118;11.436;2024-03-02T13:42:09;12.60;99.90
29571;DHT22;16814;52.118;11.436;2024-03-02T13:44:35;12.60;99.90
29571;DHT22;16814;52.118;11.436;2024-03-02T13:47:01;12.70;99.90
29571;DHT22;16814;52.118;11.436;2024-03-02T13:49:27;12.80;99.90
29571;DHT22;16814;52.118;11.436;2024-03-02T13:52:00;12.80;99.90
29571;DHT22;16814;52.118;11.436;2024-03-02T13:54:28;12.80;99.90
29571;DHT22;16814;52.118;11.436;2024-03-02T13:56:54;12.80;99.90
29571;DHT22;16814;52.118;11.436;2024-03-02T13:59:19;12.90;99.90
29571;DHT22;16814;52.118;11.436;2024-03-02T14:01:45;13.00;99.90
29571;DHT22;16814;52.118;11.436;2024-03-02T14:04:11;13.00;99.90
29571;DHT22;16814;52.118;11.436;2024-03-02T14:06:37;13.00;99.90
29571;DHT22;16814;52.118;11.436;2024-03-02T14:09:03;13.10;99.90
29571;DHT22;16814;52.118;11.436;2024-03-02T14:11:28;13.00;99.90
29571;DHT22;16814;52.118;11.436;2024-03-02T14:13:54;13.00;99.90
29571;DHT22;16814;52.118;11.436;2024-03-02T14:16:20;12.90;99.90
29571;DHT22;16814;52.118;11.436;2024-03-02T14:18:46;12.80;99.90
29571;DHT22;16814;52.118;11.436;2024-03-02T14:21:11;12.90;99.90
29571;DHT22;16814;52.118;11.436;2024-03-02T14:23:37;12.90;99.90
29571;DHT22;16814;52.118;11.436;2024-03-02T14:26:03;12.90;99.90
29571;DHT22;16814;52.118;11.436;2024-03-02T14:28:28;13.00;99.90
29571;DHT22;16814;52.118;11.436;2024-03-02T14:30:54;13.10;99.90
29571;DHT22;16814;52.118;11.436;2024-03-02T14:33:20;13.10;99.90
29571;DHT22;16814;52.118;11.436;2024-03-02T14:35:46;13.10;99.90
29571;DHT22;16814;52.118;11.436;2024-03-02T14:38:12;13.00;99.90
29571;DHT22;16814;52.118;11.436;2024-03-02T14:40:38;12.90;99.90
29571;DHT22;16814;52.118;11.436;2024-03-02T14:43:04;12.80;99.90
29571;DHT22;16814;52.118;11.436;2024-03-02T14:45:29;12.70;99.90
29571;DHT22;16814;52.118;11.436;2024-03-02T14:47:55;12.60;99.90
29571;DHT22;16814;52.118;11.436;2024-03-02T14:50:21;12.50;99.90
29571;DHT22;16814;52.118;11.436;2024-03-02T14:52:47;12.60;99.90
29571;DHT22;16814;52.118;11.436;2024-03-02T14:55:12;12.40;99.90
29571;DHT22;16814;52.118;11.436;2024-03-02T14:57:38;12.50;99.90
29571;DHT22;16814;52.118;11.436;2024-03-02T15:00:04;12.50;99.90
29571;DHT22;16814;52.118;11.436;2024-03-02T15:02:33;12.60;99.90
29571;DHT22;16814;52.118;11.436;2024-03-02T15:04:59;12.60;99.90
29571;DHT22;16814;52.118;11.436;2024-03-02T15:07:25;12.50;99.90
29571;DHT22;16814;52.118;11.436;2024-03-02T15:09:50;12.80;99.90
29571;DHT22;16814;52.118;11.436;2024-03-02T15:12:16;12.40;99.90
29571;DHT22;16814;52.118;11.436;2024-03-02T15:14:43;12.30;99.90
29571;DHT22;16814;52.118;11.436;2024-03-02T15:17:15;12.20;99.90
29571;DHT22;16814;52.118;11.436;2024-03-02T15:19:44;12.00;99.90
29571;DHT22;16814;52.118;11.436;2024-03-02T15:22:11;12.10;99.90
29571;DHT22;16814;52.118;11.436;2024-03-02T15:24:37;12.00;99.90
29571;DHT22;16814;52.118;11.436;2024-03-02T15:27:04;12.00;99.90
29571;DHT22;16814;52.118;11.436;2024-03-02T15:29:31;12.00;99.90
29571;DHT22;16814;52.118;11.436;2024-03-02T15:31:57;11.90;99.90